Time;durP1;ratioP1;P1;durP2;ratioP2;P2;SDS_P1;SDS_P2;PMS_P1;PMS_P2;Temp;Humidity;BMP_temperature;BMP_pressure;BME280_temperature;BME280_humidity;BME280_pressure;Samples;Min_cycle;Max_cycle;Signal;HPM_P1;HPM_P2
2023/02/11 00:01:25;;;;;;;1.60;0.98;;;20.90;61.80;;;;;;6214769;23;20047;-67
2023/02/11 00:03:51;;;;;;;0.90;0.90;;;20.90;62.00;;;;;;6214786;23;20083;-67
2023/02/11 00:06:17;;;;;;;1.25;1.15;;;20.80;62.00;;;;;;6190076;23;20040;-68
2023/02/11 00:08:42;;;;;;;1.20;1.10;;;20.70;62.20;;;;;;6214560;23;20011;-67
2023/02/11 00:11:13;;;;;;;0.90;0.90;;;20.60;62.30;;;;;;6216637;23;20009;-67
2023/02/11 00:13:39;;;;;;;1.00;0.82;;;20.60;62.50;;;;;;6190500;23;20007;-67
2023/02/11 00:16:07;;;;;;;3.15;1.10;;;20.60;62.50;;;;;;6214417;23;19996;-67
2023/02/11 00:18:32;;;;;;;0.80;0.80;;;20.50;62.60;;;;;;6216013;23;20032;-67
2023/02/11 00:20:58;;;;;;;1.88;1.33;;;20.50;62.80;;;;;;6215296;23;19997;-67
2023/02/11 00:23:24;;;;;;;0.98;0.88;;;20.40;62.90;;;;;;6215365;23;20007;-67
2023/02/11 00:25:50;;;;;;;0.90;0.90;;;20.40;63.00;;;;;;6215311;23;20004;-67
2023/02/11 00:28:16;;;;;;;1.30;0.85;;;20.30;63.00;;;;;;6216661;23;20096;-67
2023/02/11 00:30:41;;;;;;;0.85;0.85;;;20.30;63.20;;;;;;6214908;23;20039;-67
2023/02/11 00:33:07;;;;;;;1.05;0.80;;;20.30;63.20;;;;;;6216758;23;20001;-67
2023/02/11 00:35:32;;;;;;;0.90;0.90;;;20.20;63.20;;;;;;6215215;23;20008;-67
2023/02/11 00:37:58;;;;;;;0.73;0.70;;;20.20;63.40;;;;;;6215097;23;20001;-67
2023/02/11 00:40:24;;;;;;;1.33;0.98;;;20.10;63.60;;;;;;6216463;23;19997;-67
2023/02/11 00:42:49;;;;;;;1.95;1.05;;;20.10;63.70;;;;;;6215443;23;20004;-67
2023/02/11 00:45:15;;;;;;;0.70;0.70;;;20.10;63.90;;;;;;6215640;23;20008;-67
2023/02/11 00:47:41;;;;;;;1.52;1.00;;;20.00;63.90;;;;;;6216514;23;20005;-67
2023/02/11 00:50:07;;;;;;;0.98;0.95;;;19.90;65.00;;;;;;6215249;23;20008;-67
2023/02/11 00:52:32;;;;;;;0.93;0.93;;;19.90;64.40;;;;;;6216437;23;20000;-67
2023/02/11 00:54:58;;;;;;;1.10;1.00;;;19.90;64.60;;;;;;6189865;23;20037;-67
2023/02/11 00:57:24;;;;;;;1.00;0.90;;;19.80;64.60;;;;;;6216203;23;20341;-67
2023/02/11 00:59:49;;;;;;;1.23;0.85;;;19.80;64.60;;;;;;6216084;23;19997;-67
2023/02/11 01:02:15;;;;;;;1.08;0.82;;;19.80;64.80;;;;;;6216797;23;20001;-67
2023/02/11 01:04:41;;;;;;;1.30;0.95;;;19.70;64.90;;;;;;6214776;23;20001;-67
2023/02/11 01:07:06;;;;;;;0.73;0.73;;;19.70;65.00;;;;;;6189630;23;20067;-67
2023/02/11 01:09:32;;;;;;;2.70;1.00;;;19.70;65.10;;;;;;6214912;23;20001;-67
2023/02/11 01:11:58;;;;;;;0.90;0.90;;;19.60;65.30;;;;;;6216502;23;20385;-67
2023/02/11 01:14:23;;;;;;;0.95;0.73;;;19.60;65.40;;;;;;6214561;23;20489;-67
2023/02/11 01:16:49;;;;;;;1.00;0.90;;;19.60;65.50;;;;;;6216106;23;20425;-68
2023/02/11 01:19:15;;;;;;;1.13;0.90;;;19.50;65.60;;;;;;6216289;23;19996;-67
2023/02/11 01:21:40;;;;;;;0.70;0.70;;;19.50;65.70;;;;;;6216358;23;19996;-67
2023/02/11 01:24:06;;;;;;;0.75;0.75;;;19.50;65.80;;;;;;6216355;23;20051;-67
2023/02/11 01:26:32;;;;;;;0.75;0.75;;;19.50;66.00;;;;;;6214806;23;20058;-67
2023/02/11 01:28:59;;;;;;;1.00;1.00;;;19.40;66.00;;;;;;6215825;23;20484;-67
2023/02/11 01:31:25;;;;;;;1.00;1.00;;;19.40;66.20;;;;;;6214568;23;20075;-68
2023/02/11 01:33:51;;;;;;;0.70;0.70;;;19.40;66.20;;;;;;6189320;23;20457;-67
2023/02/11 01:36:16;;;;;;;0.90;0.90;;;19.40;66.30;;;;;;6214798;23;20005;-67
2023/02/11 01:38:43;;;;;;;0.82;0.77;;;19.30;66.30;;;;;;6214549;23;20003;-67
2023/02/11 01:41:10;;;;;;;1.27;0.80;;;19.30;66.60;;;;;;6214608;23;20024;-68
2023/02/11 01:43:38;;;;;;;1.45;1.00;;;19.30;67.10;;;;;;6214166;23;20368;-67
2023/02/11 01:46:12;;;;;;;1.15;0.85;;;19.30;67.30;;;;;;6216029;23;20084;-67
2023/02/11 01:48:40;;;;;;;1.70;0.88;;;19.20;67.50;;;;;;6214577;23;20086;-67
2023/02/11 01:51:10;;;;;;;0.95;0.90;;;19.20;67.70;;;;;;6214440;23;20074;-67
2023/02/11 01:59:06;;;;;;;0.93;0.93;;;19.10;67.70;;;;;;6214544;23;20043;-67
2023/02/11 02:01:32;;;;;;;0.90;0.80;;;19.10;67.90;;;;;;6190036;23;20509;-67
2023/02/11 02:03:59;;;;;;;2.00;0.90;;;19.10;68.00;;;;;;6214356;23;20000;-67
2023/02/11 02:06:35;;;;;;;1.40;0.95;;;19.10;68.30;;;;;;6214436;23;20004;-68
2023/02/11 02:09:08;;;;;;;0.95;0.88;;;19.10;68.00;;;;;;6214464;23;20001;-67
2023/02/11 02:11:34;;;;;;;1.02;0.80;;;19.00;68.00;;;;;;6190463;23;20001;-67
2023/02/11 02:14:00;;;;;;;0.80;0.80;;;19.00;68.10;;;;;;6189315;23;20001;-67
2023/02/11 02:16:30;;;;;;;0.90;0.90;;;19.00;68.10;;;;;;6214413;23;20115;-67
2023/02/11 02:19:17;;;;;;;1.08;0.90;;;18.90;68.30;;;;;;6214241;23;20043;-67
2023/02/11 02:22:01;;;;;;;1.02;0.80;;;18.90;68.30;;;;;;6215656;23;20004;-67
2023/02/11 02:25:01;;;;;;;1.25;1.00;;;18.90;68.30;;;;;;6215895;23;20001;-67
2023/02/11 02:27:47;;;;;;;1.02;0.93;;;18.90;68.30;;;;;;6215250;23;20056;-67
2023/02/11 02:30:16;;;;;;;1.13;0.90;;;18.80;68.30;;;;;;6214292;23;20051;-67
2023/02/11 02:32:41;;;;;;;1.35;0.95;;;18.80;68.40;;;;;;6215664;23;20092;-67
2023/02/11 02:35:31;;;;;;;0.65;0.65;;;18.80;68.40;;;;;;6215504;23;20382;-67
2023/02/11 02:38:10;;;;;;;0.90;0.90;;;18.80;68.60;;;;;;6215520;23;20024;-67
2023/02/11 02:40:47;;;;;;;1.08;0.98;;;18.70;68.50;;;;;;6189318;23;20004;-67
2023/02/11 02:43:13;;;;;;;0.90;0.90;;;18.70;68.60;;;;;;6165649;23;20334;-67
2023/02/11 02:45:38;;;;;;;0.90;0.90;;;18.70;68.60;;;;;;6189150;23;20001;-68
2023/02/11 02:48:05;;;;;;;0.70;0.70;;;18.70;68.70;;;;;;6215431;23;20071;-67
2023/02/11 02:50:35;;;;;;;0.80;0.80;;;18.60;69.00;;;;;;6213877;23;20001;-67
2023/02/11 02:53:16;;;;;;;1.55;0.80;;;18.60;69.00;;;;;;6213760;23;20379;-67
2023/02/11 02:56:17;;;;;;;1.20;0.90;;;18.60;69.10;;;;;;6189446;23;20444;-68
2023/02/11 02:59:05;;;;;;;0.75;0.75;;;18.60;69.20;;;;;;6213735;23;20000;-67
2023/02/11 03:02:21;;;;;;;0.70;0.70;;;18.60;69.40;;;;;;6214017;23;20302;-67
2023/02/11 03:04:50;;;;;;;0.65;0.65;;;18.50;69.30;;;;;;6094118;23;20010;-67
2023/02/11 03:07:26;;;;;;;0.80;0.80;;;18.50;69.40;;;;;;6093890;23;20034;-67
2023/02/11 03:09:58;;;;;;;1.55;0.88;;;18.50;69.50;;;;;;6069558;23;20006;-67
2023/02/11 03:12:24;;;;;;;0.90;0.90;;;18.50;69.50;;;;;;6071122;23;20470;-67
2023/02/11 03:14:50;;;;;;;0.90;0.80;;;18.50;69.50;;;;;;6070011;23;20006;-67
2023/02/11 03:17:16;;;;;;;1.48;0.70;;;18.40;69.50;;;;;;6070318;23;20002;-67
2023/02/11 03:19:43;;;;;;;0.70;0.70;;;18.40;69.50;;;;;;6094097;23;20102;-67
2023/02/11 03:22:19;;;;;;;2.05;0.80;;;18.40;69.70;;;;;;6044729;23;20388;-68
2023/02/11 03:24:44;;;;;;;1.08;0.80;;;18.40;69.80;;;;;;6070750;23;20069;-67
2023/02/11 03:27:26;;;;;;;0.90;0.73;;;18.40;69.80;;;;;;6069479;23;20022;-67
2023/02/11 03:29:59;;;;;;;5.00;0.90;;;18.40;69.80;;;;;;6093382;23;20014;-67
2023/02/11 03:32:33;;;;;;;2.63;0.80;;;18.30;69.80;;;;;;6093624;23;20011;-67
2023/02/11 03:35:08;;;;;;;0.80;0.80;;;18.30;69.80;;;;;;6069847;23;20486;-67
2023/02/11 03:37:35;;;;;;;2.22;0.80;;;18.30;69.90;;;;;;6083121;23;20010;-67
2023/02/11 03:40:09;;;;;;;1.60;0.70;;;18.30;70.00;;;;;;6213052;23;20453;-67
2023/02/11 03:42:40;;;;;;;0.77;0.77;;;18.30;69.90;;;;;;6213142;23;19997;-67
2023/02/11 03:45:08;;;;;;;1.55;0.70;;;18.20;69.80;;;;;;6212950;23;20083;-67
2023/02/11 03:47:35;;;;;;;0.77;0.70;;;18.20;70.00;;;;;;6188272;23;20036;-67
2023/02/11 03:50:01;;;;;;;0.82;0.82;;;18.20;69.90;;;;;;6188159;23;20004;-67
2023/02/11 03:52:27;;;;;;;1.08;0.90;;;18.20;69.90;;;;;;6188021;23;20075;-67
2023/02/11 03:54:55;;;;;;;1.27;0.80;;;18.20;70.00;;;;;;6213002;23;20035;-67
2023/02/11 03:57:20;;;;;;;0.60;0.60;;;18.20;70.00;;;;;;6188116;23;19997;-67
2023/02/11 03:59:54;;;;;;;0.70;0.70;;;18.20;70.10;;;;;;6212837;23;20007;-67
2023/02/11 04:02:24;;;;;;;1.52;0.90;;;18.10;70.10;;;;;;6188934;23;20001;-68
2023/02/11 04:04:50;;;;;;;0.77;0.77;;;18.10;70.10;;;;;;6188892;23;20333;-67
2023/02/11 04:07:15;;;;;;;1.92;0.60;;;18.10;70.10;;;;;;6214103;23;20000;-68
2023/02/11 04:09:41;;;;;;;1.10;0.68;;;18.10;70.10;;;;;;6213161;23;20005;-67
2023/02/11 04:12:07;;;;;;;0.68;0.68;;;18.10;70.20;;;;;;6214151;23;20330;-67
2023/02/11 04:14:32;;;;;;;1.63;0.60;;;18.00;70.20;;;;;;6212811;23;20384;-67
2023/02/11 04:16:58;;;;;;;1.20;1.00;;;18.00;70.30;;;;;;6214161;23;20347;-67
2023/02/11 04:19:24;;;;;;;1.08;0.93;;;18.00;70.20;;;;;;6215429;23;20001;-68
2023/02/11 04:21:49;;;;;;;1.58;0.68;;;18.00;70.20;;;;;;6215822;23;20000;-68
2023/02/11 04:24:15;;;;;;;0.70;0.70;;;18.00;70.30;;;;;;6216250;23;20012;-68
2023/02/11 04:26:40;;;;;;;0.88;0.88;;;17.90;70.30;;;;;;6216091;23;20008;-67
2023/02/11 04:29:06;;;;;;;0.70;0.70;;;17.90;71.40;;;;;;6215783;23;20419;-67
2023/02/11 04:31:32;;;;;;;0.70;0.70;;;17.90;71.40;;;;;;6214879;23;20008;-67
2023/02/11 04:33:57;;;;;;;0.73;0.60;;;17.90;70.40;;;;;;6215982;23;20008;-68
2023/02/11 04:36:23;;;;;;;0.70;0.70;;;17.90;70.40;;;;;;6215913;23;20004;-67
2023/02/11 04:38:48;;;;;;;1.05;0.70;;;17.90;70.50;;;;;;6216050;23;20072;-67
2023/02/11 04:41:14;;;;;;;0.70;0.70;;;17.90;70.70;;;;;;6189402;23;20060;-67
2023/02/11 04:43:40;;;;;;;1.55;0.80;;;17.90;70.60;;;;;;6216048;23;20047;-67
2023/02/11 04:46:05;;;;;;;3.55;0.80;;;17.80;70.60;;;;;;6215897;23;20001;-67
2023/02/11 04:48:31;;;;;;;0.60;0.60;;;17.80;70.80;;;;;;6214421;23;20341;-67
2023/02/11 04:50:57;;;;;;;1.85;0.65;;;17.80;70.70;;;;;;6215593;23;20072;-67
2023/02/11 04:53:22;;;;;;;0.70;0.68;;;17.80;70.70;;;;;;6215882;23;20001;-67
2023/02/11 04:55:49;;;;;;;0.88;0.75;;;17.70;70.80;;;;;;6214079;23;20345;-67
2023/02/11 04:58:15;;;;;;;0.70;0.70;;;17.80;70.90;;;;;;6214473;23;19998;-68
2023/02/11 05:00:41;;;;;;;0.55;0.55;;;17.80;70.90;;;;;;6215809;23;20004;-67
2023/02/11 05:03:06;;;;;;;0.68;0.68;;;17.70;70.90;;;;;;6215680;23;20007;-68
2023/02/11 05:05:32;;;;;;;0.63;0.55;;;17.70;71.00;;;;;;6215605;23;20027;-67
2023/02/11 05:07:57;;;;;;;0.60;0.60;;;17.70;71.00;;;;;;6214189;23;20445;-67
2023/02/11 05:10:23;;;;;;;0.65;0.65;;;17.70;71.10;;;;;;6215855;23;20487;-67
2023/02/11 05:12:49;;;;;;;0.57;0.55;;;17.70;71.00;;;;;;6214340;23;20036;-67
2023/02/11 05:15:15;;;;;;;0.80;0.80;;;17.70;71.20;;;;;;6215159;23;20426;-68
2023/02/11 05:17:40;;;;;;;0.68;0.50;;;17.70;71.10;;;;;;6215786;23;20001;-67
2023/02/11 05:20:06;;;;;;;0.60;0.60;;;17.60;71.30;;;;;;6215285;23;19997;-67
2023/02/11 05:22:32;;;;;;;0.70;0.70;;;17.60;72.30;;;;;;6215958;23;20001;-67
2023/02/11 05:24:57;;;;;;;0.65;0.60;;;17.60;71.10;;;;;;6215554;23;20008;-68
2023/02/11 05:27:23;;;;;;;0.60;0.60;;;17.60;71.30;;;;;;6215400;23;20016;-67
2023/02/11 05:29:49;;;;;;;0.93;0.82;;;17.60;71.30;;;;;;6215308;23;20396;-67
2023/02/11 05:32:14;;;;;;;0.80;0.63;;;17.60;71.30;;;;;;6215329;23;20031;-67
2023/02/11 05:34:40;;;;;;;1.05;0.70;;;17.60;71.30;;;;;;6213799;23;20005;-67
2023/02/11 05:37:05;;;;;;;0.68;0.68;;;17.60;71.20;;;;;;6188928;23;20001;-67
2023/02/11 05:39:31;;;;;;;2.45;0.70;;;17.50;71.20;;;;;;6215455;23;20131;-67
2023/02/11 05:41:57;;;;;;;0.63;0.52;;;17.50;71.40;;;;;;6215289;23;20020;-68
2023/02/11 05:44:22;;;;;;;0.52;0.52;;;17.50;71.30;;;;;;6215445;23;20441;-67
2023/02/11 05:46:48;;;;;;;0.70;0.70;;;17.50;71.30;;;;;;6214063;23;20000;-67
2023/02/11 05:49:15;;;;;;;0.82;0.70;;;17.50;71.40;;;;;;6214966;23;20004;-67
2023/02/11 05:51:40;;;;;;;0.40;0.40;;;17.50;71.40;;;;;;6213949;23;20027;-67
2023/02/11 05:54:06;;;;;;;1.67;0.70;;;17.40;71.40;;;;;;6215062;23;20441;-67
2023/02/11 05:56:31;;;;;;;0.60;0.60;;;17.40;71.50;;;;;;6215293;23;19997;-67
2023/02/11 05:58:58;;;;;;;0.73;0.73;;;17.40;71.60;;;;;;6213830;23;20459;-68
2023/02/11 06:01:24;;;;;;;0.68;0.63;;;17.40;71.60;;;;;;6215247;23;20004;-67
2023/02/11 06:03:50;;;;;;;0.60;0.60;;;17.40;71.70;;;;;;6213563;23;20023;-67
2023/02/11 06:06:16;;;;;;;0.85;0.77;;;17.40;71.60;;;;;;6213420;23;20001;-67
2023/02/11 06:08:41;;;;;;;0.65;0.60;;;17.40;71.90;;;;;;6188919;23;20442;-67
2023/02/11 06:11:07;;;;;;;0.63;0.63;;;17.40;72.10;;;;;;6215068;23;19997;-67
2023/02/11 06:13:33;;;;;;;0.50;0.50;;;17.40;72.00;;;;;;6215100;23;20072;-67
2023/02/11 06:16:00;;;;;;;0.60;0.60;;;17.40;72.20;;;;;;6213488;23;20059;-67
2023/02/11 06:18:25;;;;;;;0.60;0.60;;;17.40;72.10;;;;;;6188319;23;19997;-67
2023/02/11 06:20:51;;;;;;;0.63;0.60;;;17.40;72.00;;;;;;6213849;23;19996;-67
2023/02/11 06:23:17;;;;;;;2.03;0.60;;;17.40;72.00;;;;;;6214832;23;20001;-67
2023/02/11 06:25:42;;;;;;;0.57;0.57;;;17.40;72.00;;;;;;6213672;23;20027;-68
2023/02/11 06:28:09;;;;;;;0.50;0.50;;;17.40;72.00;;;;;;6214718;23;20361;-67
2023/02/11 06:30:36;;;;;;;1.45;0.52;;;17.40;72.10;;;;;;6214875;23;20007;-67
2023/02/11 06:33:02;;;;;;;1.83;0.50;;;17.30;72.00;;;;;;6213121;23;20032;-67
2023/02/11 06:35:27;;;;;;;0.63;0.57;;;17.40;72.00;;;;;;6213456;23;20000;-67
2023/02/11 06:37:53;;;;;;;0.75;0.65;;;17.30;72.00;;;;;;6214882;23;19997;-67
2023/02/11 06:40:19;;;;;;;0.65;0.63;;;17.30;72.10;;;;;;6213443;23;20001;-67
2023/02/11 06:42:45;;;;;;;0.70;0.70;;;17.30;72.10;;;;;;6188184;23;19997;-67
2023/02/11 06:45:12;;;;;;;0.85;0.55;;;17.30;72.10;;;;;;6214693;23;20001;-68
2023/02/11 06:47:38;;;;;;;0.52;0.52;;;17.30;72.40;;;;;;6214781;23;20011;-67
2023/02/11 06:50:04;;;;;;;0.45;0.45;;;17.30;72.50;;;;;;6213338;23;20007;-67
2023/02/11 06:52:30;;;;;;;0.50;0.50;;;17.30;72.30;;;;;;6213353;23;20004;-67
2023/02/11 06:54:55;;;;;;;0.60;0.60;;;17.30;72.30;;;;;;6213184;23;20341;-67
2023/02/11 06:57:21;;;;;;;0.70;0.70;;;17.30;72.40;;;;;;6214723;23;20005;-67
2023/02/11 06:59:47;;;;;;;0.43;0.43;;;17.30;72.40;;;;;;6214803;23;20004;-67
2023/02/11 07:02:12;;;;;;;0.63;0.60;;;17.20;72.50;;;;;;6213141;23;20007;-67
2023/02/11 07:04:38;;;;;;;0.60;0.60;;;17.20;72.40;;;;;;6214573;23;20004;-67
2023/02/11 07:07:04;;;;;;;0.60;0.60;;;17.20;72.30;;;;;;6214715;23;20042;-67
2023/02/11 07:09:29;;;;;;;2.05;0.60;;;17.20;72.50;;;;;;6213150;23;20011;-67
2023/02/11 07:11:55;;;;;;;0.63;0.60;;;17.20;72.40;;;;;;6213252;23;20394;-68
2023/02/11 07:14:20;;;;;;;0.98;0.50;;;17.20;72.50;;;;;;6213180;23;20468;-67
2023/02/11 07:16:46;;;;;;;0.55;0.52;;;17.20;72.40;;;;;;6212984;23;20000;-67
2023/02/11 07:19:12;;;;;;;0.80;0.40;;;17.20;72.50;;;;;;6214252;23;20076;-67
2023/02/11 07:21:37;;;;;;;0.60;0.60;;;17.20;72.40;;;;;;6213293;23;20003;-67
2023/02/11 07:24:10;;;;;;;1.65;0.60;;;17.20;72.30;;;;;;6213136;23;20080;-67
2023/02/11 07:26:35;;;;;;;0.60;0.60;;;17.10;72.30;;;;;;6188630;23;20382;-67
2023/02/11 07:29:01;;;;;;;3.00;0.80;;;17.10;72.30;;;;;;6214353;23;20088;-67
2023/02/11 07:31:28;;;;;;;0.50;0.50;;;17.10;72.40;;;;;;6212718;23;20051;-67
2023/02/11 07:33:55;;;;;;;1.65;0.60;;;17.10;72.40;;;;;;6188143;23;20003;-67
2023/02/11 07:36:21;;;;;;;0.70;0.50;;;17.10;72.40;;;;;;6214523;23;20000;-67
2023/02/11 07:38:46;;;;;;;0.52;0.52;;;17.10;72.40;;;;;;6213161;23;20445;-67
2023/02/11 07:41:14;;;;;;;1.10;0.50;;;17.10;72.50;;;;;;6212979;23;20425;-68
2023/02/11 07:43:39;;;;;;;0.52;0.52;;;17.10;72.50;;;;;;6214531;23;20001;-67
2023/02/11 07:46:17;;;;;;;0.60;0.60;;;17.00;72.60;;;;;;6214180;23;20009;-67
2023/02/11 07:48:43;;;;;;;1.27;0.52;;;17.00;72.50;;;;;;6214334;23;20004;-67
2023/02/11 07:51:13;;;;;;;0.47;0.43;;;17.00;72.40;;;;;;6214425;23;20004;-67
2023/02/11 07:53:39;;;;;;;0.95;0.60;;;17.00;72.50;;;;;;6213634;23;20315;-67
2023/02/11 07:56:05;;;;;;;0.52;0.47;;;17.00;72.50;;;;;;6189913;23;20013;-67
2023/02/11 07:58:31;;;;;;;0.60;0.60;;;17.00;72.50;;;;;;6215959;23;20000;-67
2023/02/11 08:01:06;;;;;;;0.77;0.63;;;17.00;72.50;;;;;;6190113;23;20001;-67
2023/02/11 08:03:32;;;;;;;0.60;0.52;;;17.00;72.50;;;;;;6190650;23;20024;-67
2023/02/11 08:06:01;;;;;;;0.73;0.60;;;17.00;72.50;;;;;;6190235;23;20433;-67
2023/02/11 08:08:27;;;;;;;0.60;0.60;;;17.00;72.50;;;;;;6214830;23;20081;-67
2023/02/11 08:10:53;;;;;;;0.60;0.50;;;17.00;72.50;;;;;;6216417;23;20349;-67
2023/02/11 08:13:18;;;;;;;0.45;0.40;;;17.00;72.60;;;;;;6215900;23;20005;-67
2023/02/11 08:15:44;;;;;;;1.30;0.60;;;16.90;72.50;;;;;;6214708;23;20008;-67
2023/02/11 08:18:10;;;;;;;0.50;0.47;;;16.90;72.50;;;;;;6216344;23;20396;-67
2023/02/11 08:20:35;;;;;;;1.45;0.50;;;16.90;72.50;;;;;;6214616;23;20384;-67
2023/02/11 08:23:01;;;;;;;0.77;0.40;;;16.90;72.50;;;;;;6215836;23;20445;-67
2023/02/11 08:25:27;;;;;;;2.45;0.45;;;16.90;72.50;;;;;;6216038;23;20000;-67
2023/02/11 08:27:52;;;;;;;0.82;0.60;;;16.90;72.60;;;;;;6189452;23;20017;-67
2023/02/11 08:30:18;;;;;;;0.63;0.52;;;16.90;72.70;;;;;;6216030;23;20005;-67
2023/02/11 08:32:44;;;;;;;0.50;0.50;;;16.90;72.70;;;;;;6215971;23;20365;-67
2023/02/11 08:35:11;;;;;;;0.68;0.50;;;16.90;72.70;;;;;;6216031;23;20007;-67
2023/02/11 08:37:37;;;;;;;0.47;0.47;;;16.90;72.70;;;;;;6216065;23;20000;-67
2023/02/11 08:40:02;;;;;;;0.60;0.60;;;16.90;72.60;;;;;;6214546;23;20064;-67
2023/02/11 08:42:28;;;;;;;0.50;0.50;;;16.80;72.70;;;;;;6214413;23;20000;-67
2023/02/11 08:44:54;;;;;;;0.60;0.60;;;16.80;72.70;;;;;;6216032;23;20011;-67
2023/02/11 08:47:19;;;;;;;1.52;0.40;;;16.80;72.70;;;;;;6189529;23;20059;-67
2023/02/11 08:49:45;;;;;;;0.60;0.43;;;16.90;72.70;;;;;;6216092;23;20004;-67
2023/02/11 08:52:11;;;;;;;0.40;0.40;;;16.80;72.70;;;;;;6215818;23;20072;-67
2023/02/11 08:54:36;;;;;;;0.57;0.57;;;16.80;72.70;;;;;;6215681;23;20337;-67
2023/02/11 08:57:02;;;;;;;0.60;0.60;;;16.80;72.70;;;;;;6214301;23;20001;-67
2023/02/11 08:59:28;;;;;;;0.55;0.55;;;16.80;72.80;;;;;;6214337;23;20011;-68
2023/02/11 09:01:53;;;;;;;0.50;0.50;;;16.80;72.70;;;;;;6215927;23;20031;-67
2023/02/11 09:04:19;;;;;;;0.52;0.52;;;16.80;72.90;;;;;;6215594;23;20007;-67
2023/02/11 09:06:45;;;;;;;1.40;0.50;;;16.80;72.70;;;;;;6215239;23;20708;-67
2023/02/11 09:09:12;;;;;;;0.50;0.50;;;16.80;72.70;;;;;;6214388;23;20004;-67
2023/02/11 09:11:39;;;;;;;0.93;0.60;;;16.80;72.70;;;;;;6189252;23;20001;-68
2023/02/11 09:14:05;;;;;;;0.47;0.40;;;16.80;72.80;;;;;;6214034;23;20019;-67
2023/02/11 09:16:33;;;;;;;0.85;0.60;;;16.70;72.70;;;;;;6213969;23;20076;-68
2023/02/11 09:18:59;;;;;;;0.57;0.50;;;16.70;72.80;;;;;;6214421;23;20437;-67
2023/02/11 09:21:25;;;;;;;0.50;0.50;;;16.70;72.90;;;;;;6214112;23;20023;-67
2023/02/11 09:23:51;;;;;;;0.93;0.70;;;16.80;72.90;;;;;;6213538;23;20000;-67
2023/02/11 09:26:24;;;;;;;4.50;0.70;;;16.70;72.30;;;;;;6215127;23;20000;-67
2023/02/11 09:28:50;;;;;;;3.35;0.80;;;16.80;71.20;;;;;;6190188;23;20008;-78
2023/02/11 09:31:18;;;;;;;1.13;0.70;;;16.80;70.20;;;;;;6189391;23;19997;-77
2023/02/11 09:33:47;;;;;;;0.68;0.65;;;16.90;70.40;;;;;;6189762;23;20031;-78
2023/02/11 09:36:17;;;;;;;2.10;0.77;;;17.00;70.30;;;;;;6215886;23;20004;-75
2023/02/11 09:38:43;;;;;;;0.77;0.77;;;17.00;70.30;;;;;;6189992;23;20001;-76
2023/02/11 09:41:27;;;;;;;1.90;0.77;;;17.10;70.10;;;;;;6214349;23;20001;-75
2023/02/11 09:43:54;;;;;;;0.50;0.50;;;17.20;70.10;;;;;;6216090;23;20031;-76
2023/02/11 09:46:20;;;;;;;0.80;0.80;;;17.20;69.90;;;;;;6189903;23;20007;-74
2023/02/11 09:48:47;;;;;;;0.60;0.60;;;17.30;69.90;;;;;;6190004;23;20333;-72
2023/02/11 09:51:19;;;;;;;1.10;0.60;;;17.30;69.80;;;;;;6189549;23;20001;-74
2023/02/11 09:53:45;;;;;;;0.50;0.50;;;17.40;69.70;;;;;;6189816;23;20035;-79
2023/02/11 09:56:12;;;;;;;0.50;0.50;;;17.40;69.60;;;;;;6189570;23;20005;-80
2023/02/11 09:58:39;;;;;;;1.40;0.68;;;17.50;69.40;;;;;;6214285;23;20001;-80
2023/02/11 10:01:30;;;;;;;0.95;0.80;;;17.60;69.20;;;;;;6189207;23;20004;-80
2023/02/11 10:04:27;;;;;;;0.57;0.57;;;17.60;69.10;;;;;;6216362;23;19997;-79
2023/02/11 10:06:56;;;;;;;0.50;0.50;;;17.60;68.90;;;;;;6216190;23;20004;-78
2023/02/11 10:09:36;;;;;;;0.70;0.70;;;17.70;68.80;;;;;;6189379;23;19996;-74
2023/02/11 10:12:09;;;;;;;0.40;0.40;;;17.70;68.70;;;;;;6214585;23;20409;-76
2023/02/11 10:14:53;;;;;;;1.48;0.80;;;17.70;68.50;;;;;;6214436;23;20020;-75
2023/02/11 10:17:36;;;;;;;0.73;0.70;;;17.80;68.50;;;;;;6215830;23;20004;-76
2023/02/11 10:20:12;;;;;;;0.95;0.80;;;17.80;68.50;;;;;;6216134;23;19996;-76
2023/02/11 10:22:44;;;;;;;1.88;0.70;;;17.80;68.30;;;;;;6214572;23;20339;-76
2023/02/11 10:25:22;;;;;;;1.02;0.60;;;17.90;68.10;;;;;;6189957;23;20080;-76
2023/02/11 10:27:47;;;;;;;0.60;0.55;;;17.90;68.00;;;;;;6189481;23;20021;-76
2023/02/11 10:30:22;;;;;;;0.57;0.57;;;17.90;67.80;;;;;;6189625;23;20027;-76
2023/02/11 10:33:03;;;;;;;0.70;0.70;;;18.00;67.80;;;;;;6215978;23;20054;-76
2023/02/11 10:35:29;;;;;;;0.60;0.60;;;18.00;67.80;;;;;;6214228;23;20449;-75
2023/02/11 10:37:55;;;;;;;0.60;0.60;;;18.00;67.60;;;;;;6189018;23;20001;-75
2023/02/11 10:40:26;;;;;;;0.82;0.50;;;18.00;67.50;;;;;;6189249;23;20053;-75
2023/02/11 10:42:59;;;;;;;0.98;0.60;;;18.10;67.50;;;;;;6189436;23;20007;-75
2023/02/11 10:45:31;;;;;;;0.60;0.60;;;18.10;67.50;;;;;;6214284;23;20388;-74
2023/02/11 10:47:58;;;;;;;1.48;0.50;;;18.10;67.30;;;;;;6215599;23;20027;-75
2023/02/11 10:50:32;;;;;;;0.70;0.70;;;18.10;67.30;;;;;;6215525;23;20311;-75
2023/02/11 10:53:10;;;;;;;0.82;0.60;;;18.20;67.30;;;;;;6215351;23;20000;-75
2023/02/11 10:55:36;;;;;;;0.70;0.65;;;18.10;67.10;;;;;;6215597;23;20060;-75
2023/02/11 10:58:01;;;;;;;0.45;0.45;;;18.10;67.10;;;;;;6189204;23;20021;-75
2023/02/11 11:00:41;;;;;;;0.68;0.68;;;18.20;67.00;;;;;;6189314;23;20001;-76
2023/02/11 11:03:17;;;;;;;0.60;0.60;;;18.20;66.90;;;;;;6214070;23;20001;-75
2023/02/11 11:05:49;;;;;;;0.50;0.50;;;18.20;66.90;;;;;;6189840;23;20507;-75
2023/02/11 11:08:15;;;;;;;0.60;0.60;;;18.20;66.80;;;;;;6215430;23;20004;-75
2023/02/11 11:10:45;;;;;;;0.95;0.70;;;18.20;66.70;;;;;;6213817;23;20019;-75
2023/02/11 11:13:33;;;;;;;0.70;0.70;;;18.30;66.70;;;;;;6189635;23;20027;-75
2023/02/11 11:16:15;;;;;;;0.50;0.50;;;18.30;66.50;;;;;;6213904;23;20008;-75
2023/02/11 11:18:43;;;;;;;0.50;0.50;;;18.30;66.50;;;;;;6189136;23;19996;-75
2023/02/11 11:21:24;;;;;;;0.60;0.60;;;18.30;66.60;;;;;;6189225;23;20023;-76
2023/02/11 11:23:57;;;;;;;0.77;0.70;;;18.30;66.40;;;;;;6213561;23;20032;-74
2023/02/11 11:26:23;;;;;;;;;;;18.30;66.40;;;;;;6188995;23;20504;-74
2023/02/11 11:28:57;;;;;;;0.52;0.52;;;18.30;66.30;;;;;;6188254;23;20236;-74
2023/02/11 11:31:35;;;;;;;0.50;0.50;;;18.30;66.50;;;;;;6189171;23;20032;-74
2023/02/11 11:34:19;;;;;;;0.55;0.50;;;18.30;66.50;;;;;;6190995;23;20072;-74
2023/02/11 11:36:45;;;;;;;0.40;0.40;;;18.30;66.90;;;;;;6191323;23;20004;-70
2023/02/11 11:39:30;;;;;;;0.40;0.40;;;18.30;66.70;;;;;;6214295;23;20484;-71
2023/02/11 11:41:58;;;;;;;0.50;0.50;;;18.20;66.30;;;;;;6188435;23;20385;-70
2023/02/11 11:44:29;;;;;;;0.95;0.55;;;18.20;65.60;;;;;;6213773;23;20005;-71
2023/02/11 11:47:21;;;;;;;1.67;0.60;;;18.10;65.20;;;;;;6213492;23;20055;-71
2023/02/11 11:49:56;;;;;;;1.57;0.70;;;18.10;65.00;;;;;;6213009;23;20083;-69
2023/02/11 11:52:47;;;;;;;0.90;0.73;;;18.10;64.80;;;;;;6214895;23;20072;-70
2023/02/11 11:55:19;;;;;;;0.63;0.50;;;18.00;64.60;;;;;;6190439;23;20080;-68
2023/02/11 11:57:46;;;;;;;0.85;0.60;;;18.00;64.40;;;;;;6213511;23;20028;-69
2023/02/11 12:00:38;;;;;;;0.60;0.60;;;18.00;64.50;;;;;;6189038;23;20081;-69
2023/02/11 12:03:44;;;;;;;0.70;0.70;;;18.00;64.30;;;;;;6213326;23;20001;-67
2023/02/11 12:06:35;;;;;;;0.68;0.60;;;18.00;64.30;;;;;;6213111;23;20004;-68
2023/02/11 12:09:18;;;;;;;0.90;0.65;;;17.90;64.40;;;;;;6212751;23;20040;-68
2023/02/11 12:11:53;;;;;;;0.52;0.52;;;17.90;64.40;;;;;;6214295;23;20004;-68
2023/02/11 12:14:34;;;;;;;0.60;0.60;;;17.90;64.40;;;;;;6214274;23;20005;-68
2023/02/11 12:17:06;;;;;;;0.50;0.50;;;17.90;64.70;;;;;;6214357;23;20004;-68
2023/02/11 12:19:41;;;;;;;0.50;0.47;;;17.90;64.70;;;;;;6212680;23;19996;-69
2023/02/11 12:22:12;;;;;;;0.77;0.65;;;17.90;64.80;;;;;;6214570;23;20007;-69
2023/02/11 12:24:41;;;;;;;0.55;0.47;;;17.90;65.00;;;;;;6187676;23;20004;-69
2023/02/11 12:27:25;;;;;;;0.60;0.50;;;17.90;65.00;;;;;;6212428;23;20468;-69
2023/02/11 12:30:16;;;;;;;0.50;0.50;;;17.90;65.10;;;;;;6189980;23;20345;-69
2023/02/11 12:32:56;;;;;;;1.23;0.40;;;17.80;65.20;;;;;;6212934;23;20415;-69
2023/02/11 12:35:33;;;;;;;0.50;0.50;;;17.90;65.30;;;;;;6212526;23;20004;-68
2023/02/11 12:38:07;;;;;;;0.50;0.50;;;17.90;65.40;;;;;;6212466;23;20076;-69
2023/02/11 12:40:44;;;;;;;0.43;0.43;;;17.90;65.50;;;;;;6214582;23;20071;-69
2023/02/11 12:43:35;;;;;;;0.50;0.50;;;17.90;65.60;;;;;;6191065;23;20011;-69
2023/02/11 12:46:22;;;;;;;0.60;0.60;;;17.90;65.70;;;;;;6214570;23;20005;-69
2023/02/11 12:49:27;;;;;;;2.17;0.77;;;17.80;65.70;;;;;;6215734;23;20005;-69
2023/02/11 12:51:59;;;;;;;0.65;0.47;;;17.90;65.80;;;;;;6214703;23;20004;-68
2023/02/11 12:54:34;;;;;;;0.30;0.30;;;17.80;65.80;;;;;;6215947;23;20001;-68
2023/02/11 12:57:05;;;;;;;1.75;0.50;;;17.90;65.90;;;;;;6190599;23;20008;-68
2023/02/11 12:59:39;;;;;;;0.90;0.40;;;17.90;66.00;;;;;;6190069;23;20055;-68
2023/02/11 13:02:13;;;;;;;0.50;0.50;;;17.90;66.10;;;;;;6215608;23;19996;-68
2023/02/11 13:04:41;;;;;;;0.43;0.43;;;17.90;66.10;;;;;;6189748;23;20005;-68
2023/02/11 13:07:17;;;;;;;1.02;0.50;;;17.90;66.30;;;;;;6214365;23;20024;-69